createdAt,value
2023-04-15T00:00:10.262Z,100769.78
2023-04-15T00:00:44.591Z,100770.97
2023-04-15T00:01:19.659Z,100765.22
2023-04-15T00:01:51.615Z,100769.41
2023-04-15T00:02:23.908Z,100766.75
2023-04-15T00:02:56.084Z,100771.72
2023-04-15T00:03:28.719Z,100763.53
2023-04-15T00:04:00.537Z,100762.28
2023-04-15T00:04:33.706Z,100762.72
2023-04-15T00:05:06.342Z,100773.88
2023-04-15T00:05:38.433Z,100773.75
2023-04-15T00:06:09.945Z,100770.31
2023-04-15T00:06:41.800Z,100771.03
2023-04-15T00:07:13.760Z,100773.13
2023-04-15T00:07:47.145Z,100769.56
2023-04-15T00:08:18.729Z,100769.88
2023-04-15T00:08:53.036Z,100759.75
2023-04-15T00:09:24.944Z,100771.19
2023-04-15T00:09:57.839Z,100762.78
2023-04-15T00:10:29.344Z,100761.13
2023-04-15T00:11:03.153Z,100767.16
2023-04-15T00:11:34.843Z,100756.72
2023-04-15T00:12:06.392Z,100761.31
2023-04-15T00:12:37.987Z,100758.72
2023-04-15T00:13:10.323Z,100749.53
2023-04-15T00:13:41.896Z,100754.91
2023-04-15T00:14:13.935Z,100756.16
2023-04-15T00:14:45.531Z,100753.50
2023-04-15T00:15:17.507Z,100746.81
2023-04-15T00:15:49.141Z,100753.75
2023-04-15T00:16:21.391Z,100754.44
2023-04-15T00:16:56.314Z,100753.88
2023-04-15T00:17:28.055Z,100756.91
2023-04-15T00:17:59.860Z,100760.59
2023-04-15T00:18:31.707Z,100753.88
2023-04-15T00:19:03.513Z,100758.13
2023-04-15T00:19:35.176Z,100760.97
2023-04-15T00:20:07.057Z,100756.38
2023-04-15T00:20:38.605Z,100752.34
2023-04-15T00:21:10.195Z,100754.31
2023-04-15T00:21:41.990Z,100758.00
2023-04-15T00:22:13.749Z,100754.00
2023-04-15T00:22:45.415Z,100755.25
2023-04-15T00:23:16.991Z,100750.16
2023-04-15T00:23:52.589Z,100760.59
2023-04-15T00:24:24.474Z,100746.72
2023-04-15T00:24:56.459Z,100761.84
2023-04-15T00:25:28.341Z,100750.84
2023-04-15T00:26:00.523Z,100760.16
2023-04-15T00:26:32.117Z,100761.22
2023-04-15T00:27:04.834Z,100760.91
2023-04-15T00:27:36.848Z,100757.72
2023-04-15T00:28:08.675Z,100751.44
2023-04-15T00:28:40.151Z,100753.69
2023-04-15T00:29:11.732Z,100758.78
2023-04-15T00:29:43.515Z,100759.81
2023-04-15T00:30:15.151Z,100757.41
2023-04-15T00:30:47.396Z,100762.72
2023-04-15T00:31:19.072Z,100761.84
2023-04-15T00:31:51.101Z,100761.22
2023-04-15T00:32:23.565Z,100750.00
2023-04-15T00:32:55.415Z,100764.66
2023-04-15T00:33:27.232Z,100760.81
2023-04-15T00:33:59.723Z,100758.66
2023-04-15T00:34:31.264Z,100760.53
2023-04-15T00:35:04.090Z,100764.03
2023-04-15T00:35:37.390Z,100759.75
2023-04-15T00:36:09.923Z,100762.22
2023-04-15T00:36:42.567Z,100757.34
2023-04-15T00:37:14.089Z,100757.56
2023-04-15T00:37:46.415Z,100757.81
2023-04-15T00:38:18.839Z,100763.94
2023-04-15T00:38:50.322Z,100754.97
2023-04-15T00:39:22.750Z,100763.09
2023-04-15T00:39:54.335Z,100763.53
2023-04-15T00:40:26.248Z,100756.78
2023-04-15T00:40:57.937Z,100758.09
2023-04-15T00:41:29.794Z,100757.19
2023-04-15T00:42:02.303Z,100762.19
2023-04-15T00:42:34.895Z,100764.69
2023-04-15T00:43:07.086Z,100760.00
2023-04-15T00:43:38.593Z,100767.53
2023-04-15T00:44:10.728Z,100761.00
2023-04-15T00:44:42.762Z,100761.44
2023-04-15T00:45:14.404Z,100761.00
2023-04-15T00:45:47.182Z,100765.09
2023-04-15T00:46:20.725Z,100773.69
2023-04-15T00:46:53.032Z,100763.09
2023-04-15T00:47:25.088Z,100770.03
2023-04-15T00:47:56.837Z,100771.06
2023-04-15T00:48:28.489Z,100769.78
2023-04-15T00:49:00.465Z,100764.88
2023-04-15T00:49:33.142Z,100772.25
2023-04-15T00:50:05.193Z,100767.66
2023-04-15T00:50:36.920Z,100778.97
2023-04-15T00:51:09.697Z,100776.47
2023-04-15T00:51:41.607Z,100774.66
2023-04-15T00:52:13.350Z,100776.09
2023-04-15T00:52:44.837Z,100779.09
2023-04-15T00:53:16.402Z,100784.06
2023-04-15T00:53:47.897Z,100783.88
2023-04-15T00:54:19.489Z,100785.81
2023-04-15T00:54:52.365Z,100784.16
2023-04-15T00:55:23.884Z,100791.28
2023-04-15T00:55:56.091Z,100791.09
2023-04-15T00:56:28.917Z,100785.22
2023-04-15T00:57:00.772Z,100780.03
2023-04-15T00:57:32.521Z,100783.28
2023-04-15T00:58:04.190Z,100782.03
2023-04-15T00:58:36.915Z,100782.19
2023-04-15T00:59:08.968Z,100784.66
2023-04-15T00:59:40.588Z,100783.91
2023-04-15T01:00:12.484Z,100778.16
2023-04-15T01:00:44.050Z,100789.09
2023-04-15T01:01:15.906Z,100779.63
2023-04-15T01:01:47.702Z,100784.75
2023-04-15T01:02:19.904Z,100781.63
2023-04-15T01:02:51.646Z,100776.59
2023-04-15T01:03:58.812Z,100780.53
2023-04-15T01:04:32.090Z,100780.91
2023-04-15T01:05:04.381Z,100785.91
2023-04-15T01:05:36.609Z,100790.91
2023-04-15T01:06:08.466Z,100780.97
2023-04-15T01:06:39.960Z,100787.34
2023-04-15T01:07:11.490Z,100785.72
2023-04-15T01:07:43.513Z,100790.00
2023-04-15T01:08:15.030Z,100775.88
2023-04-15T01:08:46.653Z,100778.16
2023-04-15T01:09:18.208Z,100784.91
2023-04-15T01:09:49.785Z,100786.47
2023-04-15T01:10:21.446Z,100787.84
2023-04-15T01:10:55.007Z,100789.75
2023-04-15T01:11:27.249Z,100782.28
2023-04-15T01:11:59.131Z,100783.63
2023-04-15T01:12:32.489Z,100781.63
2023-04-15T01:13:04.240Z,100781.00
2023-04-15T01:13:36.698Z,100783.00
2023-04-15T01:14:09.313Z,100781.56
2023-04-15T01:14:41.462Z,100782.38
2023-04-15T01:15:13.691Z,100781.44
2023-04-15T01:15:45.368Z,100786.28
2023-04-15T01:16:17.519Z,100786.66
2023-04-15T01:16:49.193Z,100786.34
2023-04-15T01:17:20.939Z,100786.81
2023-04-15T01:17:52.801Z,100788.94
2023-04-15T01:18:24.581Z,100785.28
2023-04-15T01:18:56.211Z,100782.72
2023-04-15T01:19:28.622Z,100783.47
2023-04-15T01:20:00.167Z,100780.06
2023-04-15T01:20:32.156Z,100783.81
2023-04-15T01:21:07.011Z,100787.16
2023-04-15T01:21:39.723Z,100780.63
2023-04-15T01:22:11.349Z,100790.94
2023-04-15T01:22:43.391Z,100786.34
2023-04-15T01:23:15.352Z,100787.00
2023-04-15T01:23:48.509Z,100787.09
2023-04-15T01:24:20.026Z,100790.94
2023-04-15T01:25:08.571Z,100787.00
2023-04-15T01:25:41.924Z,100777.97
2023-04-15T01:26:13.631Z,100781.88
2023-04-15T01:26:45.545Z,100788.06
2023-04-15T01:27:17.166Z,100791.06
2023-04-15T01:27:48.705Z,100790.63
2023-04-15T01:28:20.674Z,100787.00
2023-04-15T01:28:52.283Z,100784.94
2023-04-15T01:29:24.428Z,100787.38
2023-04-15T01:29:55.921Z,100787.66
2023-04-15T01:30:27.767Z,100788.03
2023-04-15T01:31:10.835Z,100787.63
2023-04-15T01:31:50.992Z,100779.19
2023-04-15T01:32:22.818Z,100788.38
2023-04-15T01:32:56.679Z,100792.44
2023-04-15T01:33:28.251Z,100786.84
2023-04-15T01:33:59.947Z,100789.75
2023-04-15T01:34:33.031Z,100796.03
2023-04-15T01:35:07.662Z,100790.47
2023-04-15T01:35:39.233Z,100787.47
2023-04-15T01:36:10.884Z,100787.38
2023-04-15T01:36:42.560Z,100788.38
2023-04-15T01:37:14.096Z,100789.75
2023-04-15T01:37:45.641Z,100791.56
2023-04-15T01:38:17.225Z,100789.13
2023-04-15T01:38:50.983Z,100784.25
2023-04-15T01:39:22.670Z,100786.81
2023-04-15T01:39:54.171Z,100794.81
2023-04-15T01:40:27.532Z,100796.09
2023-04-15T01:40:59.394Z,100798.94
2023-04-15T01:41:30.883Z,100798.94
2023-04-15T01:42:02.421Z,100806.63
2023-04-15T01:42:36.537Z,100800.63
2023-04-15T01:43:08.288Z,100796.53
2023-04-15T01:43:39.928Z,100804.09
2023-04-15T01:44:13.940Z,100796.94
2023-04-15T01:44:45.543Z,100800.13
2023-04-15T01:45:17.591Z,100806.13
2023-04-15T01:45:49.193Z,100799.81
2023-04-15T01:46:21.001Z,100793.72
2023-04-15T01:46:52.571Z,100799.81
2023-04-15T01:47:25.070Z,100794.72
2023-04-15T01:47:56.683Z,100805.19
2023-04-15T01:48:28.249Z,100799.81
2023-04-15T01:49:01.768Z,100798.00
2023-04-15T01:49:33.625Z,100800.59
2023-04-15T01:50:06.881Z,100803.09
2023-04-15T01:50:38.489Z,100800.72
2023-04-15T01:51:09.992Z,100800.91
2023-04-15T01:51:41.552Z,100798.75
2023-04-15T01:52:13.084Z,100802.13
2023-04-15T01:52:45.238Z,100799.59
2023-04-15T01:53:16.945Z,100799.91
2023-04-15T01:53:48.479Z,100805.63
2023-04-15T01:54:19.980Z,100795.06
2023-04-15T01:54:52.059Z,100794.06
2023-04-15T01:55:23.619Z,100799.31
2023-04-15T01:55:55.161Z,100802.91
2023-04-15T01:56:26.784Z,100796.63
2023-04-15T01:56:58.953Z,100802.00
2023-04-15T01:57:30.725Z,100804.63
2023-04-15T01:58:02.594Z,100798.94
2023-04-15T01:58:34.139Z,100803.97
2023-04-15T01:59:06.236Z,100802.78
2023-04-15T01:59:38.289Z,100799.84
2023-04-15T02:00:10.295Z,100801.22
2023-04-15T02:00:48.038Z,100803.97
2023-04-15T02:01:19.964Z,100804.03
2023-04-15T02:01:52.365Z,100793.94
2023-04-15T02:02:24.954Z,100801.56
2023-04-15T02:02:56.566Z,100791.09
2023-04-15T02:03:30.628Z,100804.28
2023-04-15T02:04:02.435Z,100796.09
2023-04-15T02:04:36.036Z,100795.72
2023-04-15T02:05:07.917Z,100796.16
2023-04-15T02:05:39.448Z,100802.72
2023-04-15T02:06:11.314Z,100806.81
2023-04-15T02:06:43.828Z,100808.03
2023-04-15T02:07:15.330Z,100808.28
2023-04-15T02:07:47.294Z,100809.81
2023-04-15T02:08:18.785Z,100812.72
2023-04-15T02:08:50.336Z,100805.53
2023-04-15T02:09:21.917Z,100806.50
2023-04-15T02:09:53.456Z,100805.22
2023-04-15T02:10:25.601Z,100805.38
2023-04-15T02:10:57.120Z,100803.44
2023-04-15T02:11:29.859Z,100809.66
2023-04-15T02:12:01.900Z,100806.00
2023-04-15T02:12:33.912Z,100810.00
2023-04-15T02:13:05.717Z,100804.72
2023-04-15T02:13:37.317Z,100811.75
2023-04-15T02:14:09.455Z,100812.72
2023-04-15T02:14:41.473Z,100815.56
2023-04-15T02:15:12.979Z,100812.03
2023-04-15T02:15:52.395Z,100814.00
2023-04-15T02:16:24.702Z,100819.13
2023-04-15T02:16:56.518Z,100814.56
2023-04-15T02:17:28.267Z,100816.31
2023-04-15T02:18:00.959Z,100810.00
2023-04-15T02:18:32.518Z,100814.97
2023-04-15T02:19:04.323Z,100816.91
2023-04-15T02:19:36.039Z,100811.38
2023-04-15T02:20:10.641Z,100810.94
2023-04-15T02:20:43.756Z,100810.94
2023-04-15T02:21:15.367Z,100810.13
2023-04-15T02:21:46.910Z,100807.41
2023-04-15T02:22:22.697Z,100813.03
2023-04-15T02:22:54.288Z,100809.94
2023-04-15T02:23:25.859Z,100810.69
2023-04-15T02:23:57.660Z,100814.22
2023-04-15T02:24:30.731Z,100820.78
2023-04-15T02:25:02.225Z,100815.91
2023-04-15T02:25:33.774Z,100816.63
2023-04-15T02:26:05.313Z,100815.81
2023-04-15T02:26:36.828Z,100812.69
2023-04-15T02:27:08.350Z,100812.69
2023-04-15T02:27:39.908Z,100812.53
2023-04-15T02:28:11.452Z,100816.81
2023-04-15T02:28:43.122Z,100821.38
2023-04-15T02:29:14.605Z,100815.38
2023-04-15T02:29:46.365Z,100813.41
2023-04-15T02:30:18.357Z,100814.22
2023-04-15T02:30:54.299Z,100818.78
2023-04-15T02:31:26.290Z,100818.50
2023-04-15T02:31:57.913Z,100815.66
2023-04-15T02:32:29.465Z,100823.19
2023-04-15T02:33:01.377Z,100819.59
2023-04-15T02:33:33.235Z,100826.03
2023-04-15T02:34:05.807Z,100821.13
2023-04-15T02:34:41.203Z,100824.41
2023-04-15T02:35:13.576Z,100820.94
2023-04-15T02:35:45.864Z,100823.94
2023-04-15T02:36:18.150Z,100822.88
2023-04-15T02:36:49.840Z,100826.47
2023-04-15T02:37:21.444Z,100824.13
2023-04-15T02:37:53.006Z,100827.03
2023-04-15T02:38:24.851Z,100826.41
2023-04-15T02:38:57.733Z,100830.94
2023-04-15T02:39:29.646Z,100821.34
2023-04-15T02:40:01.381Z,100826.50
2023-04-15T02:40:33.320Z,100827.69
2023-04-15T02:41:04.872Z,100825.75
2023-04-15T02:41:36.684Z,100821.56
2023-04-15T02:42:08.949Z,100831.22
2023-04-15T02:42:42.649Z,100834.13
2023-04-15T02:43:19.650Z,100831.97
2023-04-15T02:43:51.167Z,100835.25
2023-04-15T02:44:24.883Z,100834.47
2023-04-15T02:44:59.591Z,100833.13
2023-04-15T02:45:36.081Z,100829.56
2023-04-15T02:46:12.873Z,100828.47
2023-04-15T02:46:44.447Z,100831.84
2023-04-15T02:47:16.439Z,100827.81
2023-04-15T02:47:47.966Z,100830.47
2023-04-15T02:48:20.422Z,100827.34
2023-04-15T02:48:53.370Z,100833.09
2023-04-15T02:49:25.977Z,100831.03
2023-04-15T02:50:00.476Z,100828.16
2023-04-15T02:50:33.638Z,100839.75
2023-04-15T02:51:22.960Z,100830.22
2023-04-15T02:51:55.425Z,100838.91
2023-04-15T02:52:27.503Z,100832.34
2023-04-15T02:53:01.109Z,100833.53
2023-04-15T02:53:32.670Z,100838.56
2023-04-15T02:54:04.232Z,100845.16
2023-04-15T02:54:35.966Z,100841.16
2023-04-15T02:55:08.184Z,100829.91
2023-04-15T02:55:40.798Z,100830.97
2023-04-15T02:56:12.688Z,100837.53
2023-04-15T02:56:44.379Z,100834.09
2023-04-15T02:57:16.064Z,100834.94
2023-04-15T02:57:47.586Z,100834.81
2023-04-15T02:58:19.062Z,100832.69
2023-04-15T02:58:50.846Z,100836.72
2023-04-15T02:59:22.710Z,100842.53
2023-04-15T02:59:55.823Z,100835.97
2023-04-15T03:00:28.309Z,100837.56
2023-04-15T03:00:59.833Z,100840.72
2023-04-15T03:01:31.447Z,100843.59
2023-04-15T03:02:03.128Z,100838.97
2023-04-15T03:02:36.102Z,100842.91
2023-04-15T03:03:09.101Z,100847.81
2023-04-15T03:03:41.030Z,100844.28
2023-04-15T03:04:13.746Z,100842.19
2023-04-15T03:04:45.363Z,100848.28
2023-04-15T03:05:16.929Z,100838.38
2023-04-15T03:05:54.043Z,100847.16
2023-04-15T03:06:26.328Z,100845.00
2023-04-15T03:06:57.904Z,100839.88
2023-04-15T03:07:30.708Z,100848.38
2023-04-15T03:08:03.142Z,100843.50
2023-04-15T03:08:34.713Z,100836.91
2023-04-15T03:09:06.259Z,100843.94
2023-04-15T03:09:41.258Z,100840.50
2023-04-15T03:10:13.029Z,100837.63
2023-04-15T03:10:44.723Z,100844.06
2023-04-15T03:11:16.998Z,100841.31
2023-04-15T03:11:48.511Z,100842.50
2023-04-15T03:12:20.567Z,100842.66
2023-04-15T03:12:52.084Z,100850.63
2023-04-15T03:13:26.221Z,100845.03
2023-04-15T03:13:58.846Z,100841.34
2023-04-15T03:14:35.894Z,100846.97
2023-04-15T03:15:09.008Z,100850.41
2023-04-15T03:15:46.767Z,100850.22
2023-04-15T03:16:18.426Z,100847.56
2023-04-15T03:16:51.976Z,100847.03
2023-04-15T03:17:23.641Z,100847.56
2023-04-15T03:17:58.151Z,100843.97
2023-04-15T03:18:30.167Z,100847.28
2023-04-15T03:19:05.744Z,100847.03
2023-04-15T03:19:38.683Z,100842.19
2023-04-15T03:20:10.451Z,100848.44
2023-04-15T03:20:42.144Z,100844.28
2023-04-15T03:21:13.857Z,100849.75
2023-04-15T03:21:45.834Z,100848.28
2023-04-15T03:22:18.482Z,100850.75
2023-04-15T03:22:50.062Z,100857.22
2023-04-15T03:23:23.569Z,100860.97
2023-04-15T03:23:55.101Z,100853.25
2023-04-15T03:24:27.259Z,100853.78
2023-04-15T03:25:00.457Z,100851.91
2023-04-15T03:25:32.107Z,100851.19
2023-04-15T03:26:05.577Z,100852.31
2023-04-15T03:26:38.483Z,100848.75
2023-04-15T03:27:15.963Z,100855.72
2023-04-15T03:27:47.526Z,100850.09
2023-04-15T03:28:19.063Z,100852.72
2023-04-15T03:28:50.590Z,100844.28
2023-04-15T03:29:23.636Z,100849.91
2023-04-15T03:29:56.811Z,100846.94
2023-04-15T03:30:30.070Z,100855.66
2023-04-15T03:31:01.655Z,100848.88
2023-04-15T03:31:33.377Z,100845.09
2023-04-15T03:32:04.945Z,100848.56
2023-04-15T03:32:39.941Z,100852.75
2023-04-15T03:33:12.398Z,100852.72
2023-04-15T03:33:43.913Z,100855.44
2023-04-15T03:34:15.423Z,100859.28
2023-04-15T03:34:46.914Z,100855.84
2023-04-15T03:35:18.665Z,100853.56
2023-04-15T03:35:51.525Z,100857.53
2023-04-15T03:36:23.070Z,100856.56
2023-04-15T03:36:54.923Z,100858.09
2023-04-15T03:37:26.498Z,100867.16
2023-04-15T03:37:57.982Z,100858.91
2023-04-15T03:38:29.988Z,100859.41
2023-04-15T03:39:02.293Z,100861.22
2023-04-15T03:39:34.715Z,100865.19
2023-04-15T03:40:07.255Z,100866.16
2023-04-15T03:40:41.145Z,100859.34
2023-04-15T03:41:13.123Z,100861.06
2023-04-15T03:41:44.613Z,100872.88
2023-04-15T03:42:16.587Z,100861.19
2023-04-15T03:42:48.166Z,100863.19
2023-04-15T03:43:19.711Z,100861.72
2023-04-15T03:43:54.127Z,100867.84
2023-04-15T03:44:28.739Z,100872.81
2023-04-15T03:45:00.266Z,100872.72
2023-04-15T03:45:31.822Z,100873.63
2023-04-15T03:46:03.577Z,100871.94
2023-04-15T03:46:35.667Z,100867.97
2023-04-15T03:47:07.655Z,100859.06
2023-04-15T03:47:39.208Z,100868.75
2023-04-15T03:48:17.644Z,100872.56
2023-04-15T03:48:49.995Z,100872.19
2023-04-15T03:49:23.013Z,100868.00
2023-04-15T03:49:54.525Z,100869.53
2023-04-15T03:50:26.090Z,100882.47
2023-04-15T03:50:57.611Z,100881.47
2023-04-15T03:51:29.111Z,100877.84
2023-04-15T03:52:00.793Z,100875.72
2023-04-15T03:52:32.420Z,100873.47
2023-04-15T03:53:04.051Z,100878.13
2023-04-15T03:53:35.626Z,100879.66
2023-04-15T03:54:07.124Z,100879.94
2023-04-15T03:54:38.691Z,100876.94
2023-04-15T03:55:10.254Z,100873.53
2023-04-15T03:55:41.808Z,100880.22
2023-04-15T03:56:13.348Z,100882.06
2023-04-15T03:56:44.990Z,100877.41
2023-04-15T03:57:16.502Z,100884.06
2023-04-15T03:57:48.002Z,100879.56
2023-04-15T03:58:19.516Z,100883.00
2023-04-15T03:58:51.149Z,100875.28
2023-04-15T03:59:22.667Z,100879.25
2023-04-15T03:59:54.236Z,100883.44
2023-04-15T04:00:25.973Z,100874.69
2023-04-15T04:00:57.543Z,100878.78
2023-04-15T04:01:29.047Z,100874.44
2023-04-15T04:02:00.823Z,100883.38
2023-04-15T04:02:32.542Z,100881.72
2023-04-15T04:03:04.443Z,100884.06
2023-04-15T04:03:37.290Z,100881.78
2023-04-15T04:04:09.226Z,100889.69
2023-04-15T04:04:40.883Z,100889.06
2023-04-15T04:05:13.309Z,100883.44
2023-04-15T04:05:44.858Z,100888.34
2023-04-15T04:06:16.998Z,100888.72
2023-04-15T04:06:48.499Z,100886.19
2023-04-15T04:07:20.040Z,100883.72
2023-04-15T04:07:51.622Z,100889.00
2023-04-15T04:08:23.154Z,100891.47
2023-04-15T04:08:54.658Z,100892.97
2023-04-15T04:09:26.149Z,100891.91
2023-04-15T04:09:58.350Z,100895.44
2023-04-15T04:10:29.936Z,100893.63
2023-04-15T04:11:01.528Z,100883.72
2023-04-15T04:11:33.142Z,100900.38
2023-04-15T04:12:04.702Z,100887.53
2023-04-15T04:12:36.332Z,100898.72
2023-04-15T04:13:08.033Z,100893.16
2023-04-15T04:13:39.564Z,100895.63
2023-04-15T04:14:11.076Z,100894.34
2023-04-15T04:14:42.675Z,100897.31
2023-04-15T04:15:14.371Z,100901.31
2023-04-15T04:15:46.194Z,100896.72
2023-04-15T04:16:17.831Z,100895.69
2023-04-15T04:16:49.433Z,100893.41
2023-04-15T04:17:21.077Z,100890.59
2023-04-15T04:17:52.700Z,100897.38
2023-04-15T04:18:24.421Z,100900.50
2023-04-15T04:18:55.996Z,100897.69
2023-04-15T04:19:27.572Z,100898.50
2023-04-15T04:19:59.144Z,100892.41
2023-04-15T04:20:32.136Z,100900.78
2023-04-15T04:21:03.702Z,100895.34
2023-04-15T04:21:36.483Z,100899.63
2023-04-15T04:22:08.022Z,100902.25
2023-04-15T04:22:40.489Z,100900.97
2023-04-15T04:23:12.026Z,100904.06
2023-04-15T04:23:43.581Z,100900.59
2023-04-15T04:24:15.522Z,100902.25
2023-04-15T04:24:47.007Z,100900.59
2023-04-15T04:25:18.535Z,100905.31
2023-04-15T04:25:50.070Z,100906.88
2023-04-15T04:26:21.657Z,100903.06
2023-04-15T04:26:55.923Z,100911.44
2023-04-15T04:27:27.490Z,100906.69
2023-04-15T04:27:59.553Z,100907.53
2023-04-15T04:28:31.106Z,100914.44
2023-04-15T04:29:02.831Z,100910.16
2023-04-15T04:29:34.679Z,100911.97
2023-04-15T04:30:07.321Z,100909.53
2023-04-15T04:30:39.373Z,100907.88
2023-04-15T04:31:10.912Z,100915.50
2023-04-15T04:31:42.746Z,100910.22
2023-04-15T04:32:14.628Z,100912.22
2023-04-15T04:32:46.327Z,100910.56
2023-04-15T04:33:17.896Z,100914.84
2023-04-15T04:33:49.403Z,100918.31
2023-04-15T04:34:21.107Z,100919.47
2023-04-15T04:34:52.657Z,100919.47
2023-04-15T04:35:24.165Z,100918.47
2023-04-15T04:35:55.737Z,100921.13
2023-04-15T04:36:27.298Z,100918.66
2023-04-15T04:36:58.822Z,100921.13
2023-04-15T04:37:30.553Z,100919.13
2023-04-15T04:38:02.076Z,100925.69
2023-04-15T04:38:33.580Z,100924.06
2023-04-15T04:39:05.114Z,100918.78
2023-04-15T04:39:36.878Z,100916.44
2023-04-15T04:40:09.526Z,100920.72
2023-04-15T04:40:41.151Z,100931.16
2023-04-15T04:41:12.787Z,100928.03
2023-04-15T04:41:44.903Z,100929.50
2023-04-15T04:42:16.719Z,100930.97
2023-04-15T04:42:48.269Z,100928.50
2023-04-15T04:43:19.819Z,100928.34
2023-04-15T04:43:51.377Z,100926.69
2023-04-15T04:44:22.898Z,100933.31
2023-04-15T04:44:54.412Z,100928.84
2023-04-15T04:45:26.039Z,100931.78
2023-04-15T04:45:57.671Z,100927.81
2023-04-15T04:46:29.371Z,100929.63
2023-04-15T04:47:00.883Z,100923.88
2023-04-15T04:47:32.407Z,100933.78
2023-04-15T04:48:07.283Z,100931.91
2023-04-15T04:48:39.356Z,100934.91
2023-04-15T04:49:10.864Z,100924.06
2023-04-15T04:49:42.639Z,100928.34
2023-04-15T04:50:14.288Z,100927.34
2023-04-15T04:50:47.052Z,100927.69
2023-04-15T04:51:19.032Z,100932.59
2023-04-15T04:51:50.843Z,100933.19
2023-04-15T04:52:22.327Z,100932.38
2023-04-15T04:52:53.906Z,100935.19
2023-04-15T04:53:25.730Z,100932.03
2023-04-15T04:53:57.363Z,100936.13
2023-04-15T04:54:28.911Z,100933.19
2023-04-15T04:55:00.680Z,100940.13
2023-04-15T04:55:32.426Z,100936.84
2023-04-15T04:56:04.585Z,100935.31
2023-04-15T04:56:36.340Z,100943.41
2023-04-15T04:57:08.155Z,100940.09
2023-04-15T04:57:39.757Z,100935.44
2023-04-15T04:58:11.701Z,100935.09
2023-04-15T04:58:43.201Z,100945.81
2023-04-15T04:59:14.819Z,100944.00
2023-04-15T04:59:46.599Z,100937.09
2023-04-15T05:00:18.272Z,100941.19
2023-04-15T05:00:49.967Z,100942.72
2023-04-15T05:01:21.585Z,100939.41
2023-04-15T05:01:53.225Z,100946.69
2023-04-15T05:02:27.332Z,100939.13
2023-04-15T05:02:59.221Z,100949.66
2023-04-15T05:03:30.984Z,100941.75
2023-04-15T05:04:05.351Z,100931.38
2023-04-15T05:04:37.299Z,100939.75
2023-04-15T05:05:09.642Z,100946.69
2023-04-15T05:05:41.518Z,100943.22
2023-04-15T05:06:13.011Z,100942.22
2023-04-15T05:06:44.640Z,100938.75
2023-04-15T05:07:16.168Z,100939.41
2023-04-15T05:07:49.213Z,100944.69
2023-04-15T05:08:20.734Z,100941.41
2023-04-15T05:08:52.257Z,100938.94
2023-04-15T05:09:23.872Z,100939.13
2023-04-15T05:09:55.421Z,100943.56
2023-04-15T05:10:26.921Z,100945.69
2023-04-15T05:10:58.668Z,100945.19
2023-04-15T05:11:30.174Z,100943.38
2023-04-15T05:12:01.903Z,100939.91
2023-04-15T05:12:34.304Z,100944.84
2023-04-15T05:13:06.013Z,100942.00
2023-04-15T05:13:38.774Z,100943.66
2023-04-15T05:14:10.340Z,100945.47
2023-04-15T05:14:42.401Z,100944.66
2023-04-15T05:15:13.985Z,100950.94
2023-04-15T05:15:45.682Z,100938.72
2023-04-15T05:16:17.759Z,100945.66
2023-04-15T05:16:49.373Z,100939.38
2023-04-15T05:17:20.969Z,100950.75
2023-04-15T05:17:52.569Z,100942.84
2023-04-15T05:18:24.396Z,100953.84
2023-04-15T05:18:55.955Z,100943.13
2023-04-15T05:19:27.456Z,100944.94
2023-04-15T05:19:59.023Z,100953.16
2023-04-15T05:20:30.606Z,100952.78
2023-04-15T05:21:02.604Z,100952.63
2023-04-15T05:21:34.134Z,100950.16
2023-04-15T05:22:06.219Z,100954.06
2023-04-15T05:22:37.749Z,100949.28
2023-04-15T05:23:09.330Z,100948.44
2023-04-15T05:23:41.313Z,100951.75
2023-04-15T05:24:12.804Z,100944.84
2023-04-15T05:24:44.331Z,100951.25
2023-04-15T05:25:16.360Z,100940.03
2023-04-15T05:25:47.974Z,100944.41
2023-04-15T05:26:19.647Z,100945.41
2023-04-15T05:26:51.541Z,100953.59
2023-04-15T05:27:24.092Z,100946.34
2023-04-15T05:27:55.896Z,100954.53
2023-04-15T05:28:27.502Z,100951.88
2023-04-15T05:28:59.227Z,100952.19
2023-04-15T05:29:30.884Z,100954.34
2023-04-15T05:30:02.507Z,100951.53
2023-04-15T05:30:34.085Z,100951.47
2023-04-15T05:31:06.207Z,100958.41
2023-04-15T05:31:37.903Z,100963.31
2023-04-15T05:32:09.642Z,100957.94
2023-04-15T05:32:41.499Z,100955.84
2023-04-15T05:33:13.088Z,100954.84
2023-04-15T05:33:44.658Z,100957.94
2023-04-15T05:34:17.150Z,100963.69
2023-04-15T05:34:48.668Z,100955.47
2023-04-15T05:35:20.202Z,100958.88
2023-04-15T05:35:51.798Z,100959.44
2023-04-15T05:36:23.328Z,100961.69
2023-04-15T05:36:54.923Z,100960.75
2023-04-15T05:37:26.638Z,100963.31
2023-04-15T05:37:58.134Z,100964.00
2023-04-15T05:38:29.669Z,100964.88
2023-04-15T05:39:01.590Z,100967.09
2023-04-15T05:39:33.956Z,100963.75
2023-04-15T05:40:06.100Z,100969.66
2023-04-15T05:40:37.682Z,100972.31
2023-04-15T05:41:09.285Z,100968.56
2023-04-15T05:41:41.014Z,100972.03
2023-04-15T05:42:12.677Z,100964.34
2023-04-15T05:42:44.290Z,100973.41
2023-04-15T05:43:15.792Z,100972.22
2023-04-15T05:44:06.756Z,100970.31
2023-04-15T05:44:38.358Z,100977.50
2023-04-15T05:45:10.333Z,100973.78
2023-04-15T05:45:42.013Z,100977.22
2023-04-15T05:46:13.575Z,100982.25
2023-04-15T05:46:45.135Z,100974.84
2023-04-15T05:47:17.193Z,100976.50
2023-04-15T05:47:50.905Z,100980.28
2023-04-15T05:48:22.505Z,100972.00
2023-04-15T05:48:55.970Z,100968.91
2023-04-15T05:49:28.049Z,100980.81
2023-04-15T05:49:59.573Z,100974.66
2023-04-15T05:50:31.301Z,100974.81
2023-04-15T05:51:02.874Z,100978.38
2023-04-15T05:51:34.483Z,100981.81
2023-04-15T05:52:06.362Z,100985.00
2023-04-15T05:52:38.046Z,100983.81
2023-04-15T05:53:09.687Z,100985.72
2023-04-15T05:53:41.743Z,100983.63
2023-04-15T05:54:13.250Z,100983.31
2023-04-15T05:54:44.745Z,100989.56
2023-04-15T05:55:16.546Z,100986.63
2023-04-15T05:55:48.082Z,100988.16
2023-04-15T05:56:20.692Z,100993.31
2023-04-15T05:56:52.525Z,100991.19
2023-04-15T05:57:24.103Z,100997.84
2023-04-15T05:57:55.724Z,100996.16
2023-04-15T05:58:27.632Z,100988.66
2023-04-15T05:58:59.301Z,100997.41
2023-04-15T05:59:31.020Z,101000.97
2023-04-15T06:00:02.668Z,101001.97
2023-04-15T06:00:41.074Z,101003.16
2023-04-15T06:01:12.584Z,101002.16
2023-04-15T06:01:45.268Z,101000.97
2023-04-15T06:02:17.681Z,100999.25
2023-04-15T06:02:50.014Z,101005.72
2023-04-15T06:03:23.088Z,101005.53
2023-04-15T06:03:54.908Z,101006.16
2023-04-15T06:04:26.745Z,101009.19
2023-04-15T06:04:59.231Z,101004.72
2023-04-15T06:05:30.812Z,101007.00
2023-04-15T06:06:02.659Z,101003.97
2023-04-15T06:06:34.669Z,101015.19
2023-04-15T06:07:06.383Z,101010.88
2023-04-15T06:07:38.573Z,101008.59
2023-04-15T06:08:10.095Z,101012.53